Time;durP1;ratioP1;P1;durP2;ratioP2;P2;SDS_P1;SDS_P2;PMS_P1;PMS_P2;Temp;Humidity;BMP_temperature;BMP_pressure;BME280_temperature;BME280_humidity;BME280_pressure;Samples;Min_cycle;Max_cycle;Signal;HPM_P1;HPM_P2
2022/04/24 00:01:05;;;;;;;;;;;;;;;;;;5086251;28;19928;-58
2022/04/24 00:03:31;;;;;;;;;;;;;;;;;;5087878;28;20452;-60
2022/04/24 00:05:57;;;;;;;;;;;;;;;;;;5088009;28;20459;-58
2022/04/24 00:08:23;;;;;;;;;;;;;;;;;;5088560;28;19928;-59
2022/04/24 00:10:49;;;;;;;;;;;;;;;;;;5093486;28;19939;-60
2022/04/24 00:13:16;;;;;;;;;;;;;;;;;;5091253;28;20023;-60
2022/04/24 00:15:42;;;;;;;;;;;;;;;;;;5083952;28;19927;-61
2022/04/24 00:18:08;;;;;;;;;;;;;;;;;;5087846;28;20470;-62
2022/04/24 00:20:34;;;;;;;;;;;;;;;;;;5086027;28;19951;-62
2022/04/24 00:23:00;;;;;;;;;;;;;;;;;;5085811;28;19927;-63
2022/04/24 00:25:26;;;;;;;;;;;;;;;;;;5080999;28;19928;-62
2022/04/24 00:27:52;;;;;;;;;;;;;;;;;;5087279;28;19928;-61
2022/04/24 00:30:19;;;;;;;;;;;;;;;;;;5085648;28;19932;-62
2022/04/24 00:32:45;;;;;;;;;;;;;;;;;;5086938;28;19936;-61
2022/04/24 00:35:11;;;;;;;;;;;;;;;;;;5086052;28;19928;-59
2022/04/24 00:37:37;;;;;;;;;;;;;;;;;;5087391;28;20392;-59
2022/04/24 00:40:03;;;;;;;;;;;;;;;;;;4736924;28;9999792;-58
2022/04/24 00:42:30;;;;;;;;;;;;;;;;;;5093571;28;20317;-59
2022/04/24 00:44:56;;;;;;;;;;;;;;;;;;5084508;28;19978;-62
2022/04/24 00:47:22;;;;;;;;;;;;;;;;;;5086262;28;19931;-63
2022/04/24 00:49:48;;;;;;;;;;;;;;;;;;5086408;28;19931;-62
2022/04/24 00:52:14;;;;;;;;;;;;;;;;;;5088066;28;20380;-62
2022/04/24 00:54:40;;;;;;;;;;;;;;;;;;5089682;28;20304;-61
2022/04/24 00:57:07;;;;;;;;;;;;;;;;;;5090100;28;19924;-56
2022/04/24 00:59:33;;;;;;;;;;;;;;;;;;5081603;28;19931;-57
2022/04/24 01:01:59;;;;;;;;;;;;;;;;;;5089081;28;20400;-56
2022/04/24 01:04:25;;;;;;;;;;;;;;;;;;5083804;28;20296;-59
2022/04/24 01:06:51;;;;;;;;;;;;;;;;;;5089147;28;19928;-58
2022/04/24 01:09:17;;;;;;;;;;;;;;;;;;5088874;28;19931;-63
2022/04/24 01:11:44;;;;;;;;;;;;;;;;;;5093812;28;19977;-62
2022/04/24 01:14:10;;;;;;;;;;;;;;;;;;5093571;28;20400;-63
2022/04/24 01:16:36;;;;;;;;;;;;;;;;;;5090805;28;19924;-62
2022/04/24 01:19:02;;;;;;;;;;;;;;;;;;5093466;28;20545;-62
2022/04/24 01:21:28;;;;;;;;;;;;;;;;;;5092461;28;19924;-64
2022/04/24 01:23:54;;;;;;;;;;;;;;;;;;5094173;28;19924;-60
2022/04/24 01:26:21;;;;;;;;;;;;;;;;;;5093753;28;19939;-62
2022/04/24 01:28:47;;;;;;;;;;;;;;;;;;5093057;28;20019;-62
2022/04/24 01:31:13;;;;;;;;;;;;;;;;;;5093704;28;19928;-60
2022/04/24 01:33:39;;;;;;;;;;;;;;;;;;5093922;28;19935;-61
2022/04/24 01:36:05;;;;;;;;;;;;;;;;;;5088491;28;19925;-60
2022/04/24 01:38:32;;;;;;;;;;;;;;;;;;5094375;28;19939;-59
2022/04/24 01:40:58;;;;;;;;;;;;;;;;;;5091562;28;19924;-61
2022/04/24 01:43:24;;;;;;;;;;;;;;;;;;5092304;28;19924;-60
2022/04/24 01:45:50;;;;;;;;;;;;;;;;;;5090098;28;19928;-61
2022/04/24 01:48:17;;;;;;;;;;;;;;;;;;5091178;28;19931;-60
2022/04/24 01:50:43;;;;;;;;;;;;;;;;;;5088290;28;19931;-59
2022/04/24 01:53:09;;;;;;;;;;;;;;;;;;5093080;28;19924;-60
2022/04/24 01:55:35;;;;;;;;;;;;;;;;;;5092453;28;20377;-59
2022/04/24 01:58:01;;;;;;;;;;;;;;;;;;5096300;28;20475;-61
2022/04/24 02:00:28;;;;;;;;;;;;;;;;;;5098029;28;19924;-60
2022/04/24 02:02:54;;;;;;;;;;;;;;;;;;5098557;28;20015;-63
2022/04/24 02:05:20;;;;;;;;;;;;;;;;;;5098606;28;19932;-63
2022/04/24 02:07:47;;;;;;;;;;;;;;;;;;5096844;28;19924;-63
2022/04/24 02:10:13;;;;;;;;;;;;;;;;;;5093961;28;19940;-63
2022/04/24 02:12:41;;;;;;;;;;;;;;;;;;5099393;28;19931;-63
2022/04/24 02:15:07;;;;;;;;;;;;;;;;;;5100435;28;19993;-63
2022/04/24 02:17:34;;;;;;;;;;;;;;;;;;5098792;28;19931;-64
2022/04/24 02:20:00;;;;;;;;;;;;;;;;;;5094652;28;19942;-64
2022/04/24 02:22:26;;;;;;;;;;;;;;;;;;5093118;28;20373;-63
2022/04/24 02:24:52;;;;;;;;;;;;;;;;;;5097336;28;20308;-63
2022/04/24 02:27:18;;;;;;;;;;;;;;;;;;5094680;28;19955;-63
2022/04/24 02:29:44;;;;;;;;;;;;;;;;;;5094484;28;20304;-66
2022/04/24 02:32:10;;;;;;;;;;;;;;;;;;5101074;28;19943;-66
2022/04/24 02:34:37;;;;;;;;;;;;;;;;;;5097539;28;19928;-68
2022/04/24 02:37:03;;;;;;;;;;;;;;;;;;5098742;28;19931;-68
2022/04/24 02:39:29;;;;;;;;;;;;;;;;;;5101157;28;19924;-68
2022/04/24 02:41:55;;;;;;;;;;;;;;;;;;5102060;28;19928;-66
2022/04/24 02:44:21;;;;;;;;;;;;;;;;;;5095953;28;19955;-66
2022/04/24 02:46:47;;;;;;;;;;;;;;;;;;5097754;28;19931;-66
2022/04/24 02:49:13;;;;;;;;;;;;;;;;;;5097162;28;19924;-66
2022/04/24 02:51:39;;;;;;;;;;;;;;;;;;5098278;28;19925;-67
2022/04/24 02:54:06;;;;;;;;;;;;;;;;;;5100095;28;19925;-65
2022/04/24 02:56:32;;;;;;;;;;;;;;;;;;5101575;28;20007;-65
2022/04/24 02:58:58;;;;;;;;;;;;;;;;;;5097692;28;19928;-66
2022/04/24 03:01:24;;;;;;;;;;;;;;;;;;5101544;22;19931;-68
2022/04/24 03:03:50;;;;;;;;;;;;;;;;;;5079877;28;19924;-67
2022/04/24 03:06:17;;;;;;;;;;;;;;;;;;5064744;28;19929;-67
2022/04/24 03:08:43;;;;;;;;;;;;;;;;;;5066353;28;20305;-68
2022/04/24 03:11:09;;;;;;;;;;;;;;;;;;5053082;28;19956;-68
2022/04/24 03:13:35;;;;;;;;;;;;;;;;;;5057534;28;19924;-70
2022/04/24 03:16:01;;;;;;;;;;;;;;;;;;5058233;28;20118;-70
2022/04/24 03:18:27;;;;;;;;;;;;;;;;;;5043173;28;19925;-70
2022/04/24 03:20:54;;;;;;;;;;;;;;;;;;5049279;28;19949;-70
2022/04/24 03:23:20;;;;;;;;;;;;;;;;;;5057881;28;20175;-69
2022/04/24 03:25:46;;;;;;;;;;;;;;;;;;5058062;28;19939;-69
2022/04/24 03:28:12;;;;;;;;;;;;;;;;;;5062339;28;19929;-69
2022/04/24 03:30:39;;;;;;;;;;;;;;;;;;5049069;28;20300;-69
2022/04/24 03:33:05;;;;;;;;;;;;;;;;;;5064497;28;19925;-69
2022/04/24 03:35:31;;;;;;;;;;;;;;;;;;5075214;28;19929;-70
2022/04/24 03:37:57;;;;;;;;;;;;;;;;;;5064079;28;19925;-70
2022/04/24 03:40:23;;;;;;;;;;;;;;;;;;5082022;28;19929;-70
2022/04/24 03:42:49;;;;;;;;;;;;;;;;;;5062727;28;19933;-70
2022/04/24 03:45:15;;;;;;;;;;;;;;;;;;5072184;28;19924;-70
2022/04/24 03:47:42;;;;;;;;;;;;;;;;;;5075952;28;19913;-71
2022/04/24 03:50:08;;;;;;;;;;;;;;;;;;5064011;28;19925;-70
2022/04/24 03:52:34;;;;;;;;;;;;;;;;;;5050408;28;19924;-70
2022/04/24 03:55:00;;;;;;;;;;;;;;;;;;5053909;28;19931;-70
2022/04/24 03:57:26;;;;;;;;;;;;;;;;;;5054090;28;20631;-70
2022/04/24 03:59:52;;;;;;;;;;;;;;;;;;5058704;28;19924;-70
2022/04/24 04:02:18;;;;;;;;;;;;;;;;;;5053117;28;19925;-69
2022/04/24 04:04:45;;;;;;;;;;;;;;;;;;5055527;28;19925;-70
2022/04/24 04:07:11;;;;;;;;;;;;;;;;;;5052795;28;20020;-69
2022/04/24 04:09:37;;;;;;;;;;;;;;;;;;5050283;28;20373;-71
2022/04/24 04:12:03;;;;;;;;;;;;;;;;;;5052218;28;19929;-71
2022/04/24 04:14:29;;;;;;;;;;;;;;;;;;5059027;28;19925;-70
2022/04/24 04:16:55;;;;;;;;;;;;;;;;;;5041464;28;19925;-70
2022/04/24 04:19:22;;;;;;;;;;;;;;;;;;5054358;28;19931;-70
2022/04/24 04:21:48;;;;;;;;;;;;;;;;;;5057664;28;19931;-70
2022/04/24 04:24:14;;;;;;;;;;;;;;;;;;5042714;28;20268;-70
2022/04/24 04:26:40;;;;;;;;;;;;;;;;;;5056744;28;19925;-67
2022/04/24 04:29:06;;;;;;;;;;;;;;;;;;5049588;28;19925;-67
2022/04/24 04:31:32;;;;;;;;;;;;;;;;;;5056722;28;19944;-67
2022/04/24 04:33:58;;;;;;;;;;;;;;;;;;5046114;28;19925;-69
2022/04/24 04:36:25;;;;;;;;;;;;;;;;;;5062707;28;19924;-67
2022/04/24 04:38:51;;;;;;;;;;;;;;;;;;5060024;28;19924;-66
2022/04/24 04:41:17;;;;;;;;;;;;;;;;;;5052026;28;20326;-67
2022/04/24 04:43:43;;;;;;;;;;;;;;;;;;5054036;28;19925;-67
2022/04/24 04:46:09;;;;;;;;;;;;;;;;;;5042883;28;19963;-73
2022/04/24 04:48:35;;;;;;;;;;;;;;;;;;5053388;28;19925;-72
2022/04/24 04:51:01;;;;;;;;;;;;;;;;;;5062087;28;19943;-72
2022/04/24 04:53:28;;;;;;;;;;;;;;;;;;5057425;28;19958;-72
2022/04/24 04:55:54;;;;;;;;;;;;;;;;;;5054874;28;19925;-74
2022/04/24 04:58:20;;;;;;;;;;;;;;;;;;5052905;28;19999;-72
2022/04/24 05:00:46;;;;;;;;;;;;;;;;;;5053351;28;19925;-73
2022/04/24 05:03:12;;;;;;;;;;;;;;;;;;5050121;28;19942;-72
2022/04/24 05:05:38;;;;;;;;;;;;;;;;;;5058661;28;19931;-73
2022/04/24 05:08:05;;;;;;;;;;;;;;;;;;5056983;28;19925;-73
2022/04/24 05:10:31;;;;;;;;;;;;;;;;;;5060240;28;19964;-67
2022/04/24 05:12:57;;;;;;;;;;;;;;;;;;5063462;28;20015;-68
2022/04/24 05:15:25;;;;;;;;;;;;;;;;;;5065355;28;19938;-68
2022/04/24 05:17:52;;;;;;;;;;;;;;;;;;5065892;28;19924;-69
2022/04/24 05:20:18;;;;;;;;;;;;;;;;;;5056497;28;19928;-68
2022/04/24 05:22:44;;;;;;;;;;;;;;;;;;5053521;28;19930;-67
2022/04/24 05:25:10;;;;;;;;;;;;;;;;;;5046598;28;19925;-68
2022/04/24 05:27:37;;;;;;;;;;;;;;;;;;5055543;28;19924;-68
2022/04/24 05:30:05;;;;;;;;;;;;;;;;;;5049668;28;20348;-67
2022/04/24 05:32:31;;;;;;;;;;;;;;;;;;5054493;28;19936;-69
2022/04/24 05:34:57;;;;;;;;;;;;;;;;;;5050612;28;19933;-69
2022/04/24 05:37:23;;;;;;;;;;;;;;;;;;5055938;28;19931;-69
2022/04/24 05:39:49;;;;;;;;;;;;;;;;;;5058862;28;20411;-69
2022/04/24 05:42:16;;;;;;;;;;;;;;;;;;5051063;28;19929;-69
2022/04/24 05:44:42;;;;;;;;;;;;;;;;;;5050060;28;19925;-69
2022/04/24 05:47:08;;;;;;;;;;;;;;;;;;5057427;28;19925;-70
2022/04/24 05:49:34;;;;;;;;;;;;;;;;;;5065108;28;19925;-71
2022/04/24 05:52:00;;;;;;;;;;;;;;;;;;5071040;28;19964;-68
2022/04/24 05:54:28;;;;;;;;;;;;;;;;;;5063185;28;19925;-69
2022/04/24 05:56:54;;;;;;;;;;;;;;;;;;5053580;28;19925;-70
2022/04/24 05:59:20;;;;;;;;;;;;;;;;;;5060847;28;20407;-69
2022/04/24 06:01:47;;;;;;;;;;;;;;;;;;5063978;28;19924;-66
2022/04/24 06:04:13;;;;;;;;;;;;;;;;;;5061246;28;19924;-67
2022/04/24 06:06:39;;;;;;;;;;;;;;;;;;5053999;28;20495;-67
2022/04/24 06:09:06;;;;;;;;;;;;;;;;;;5061205;28;20266;-68
2022/04/24 06:11:32;;;;;;;;;;;;;;;;;;5057528;28;19929;-68
2022/04/24 06:13:59;;;;;;;;;;;;;;;;;;5057371;28;20012;-65
2022/04/24 06:16:25;;;;;;;;;;;;;;;;;;5059396;28;19928;-65
2022/04/24 06:18:51;;;;;;;;;;;;;;;;;;5063372;28;19931;-68
2022/04/24 06:21:18;;;;;;;;;;;;;;;;;;5066643;28;19927;-68
2022/04/24 06:23:44;;;;;;;;;;;;;;;;;;5074768;28;19924;-68
2022/04/24 06:26:10;;;;;;;;;;;;;;;;;;5059949;28;19988;-69
2022/04/24 06:28:36;;;;;;;;;;;;;;;;;;5064377;28;19925;-69
2022/04/24 06:31:02;;;;;;;;;;;;;;;;;;5066823;28;19925;-69
2022/04/24 06:33:28;;;;;;;;;;;;;;;;;;5066520;28;20475;-70
2022/04/24 06:35:55;;;;;;;;;;;;;;;;;;5057085;28;19931;-68
2022/04/24 06:38:22;;;;;;;;;;;;;;;;;;5058582;28;19931;-70
2022/04/24 06:40:51;;;;;;;;;;;;;;;;;;5054803;28;19928;-70
2022/04/24 06:43:17;;;;;;;;;;;;;;;;;;5058936;28;19952;-72
2022/04/24 06:45:43;;;;;;;;;;;;;;;;;;5056195;28;20023;-73
2022/04/24 06:48:09;;;;;;;;;;;;;;;;;;5063309;28;19936;-73
2022/04/24 06:50:36;;;;;;;;;;;;;;;;;;5053311;28;19974;-73
2022/04/24 06:53:02;;;;;;;;;;;;;;;;;;5059485;28;19925;-73
2022/04/24 06:55:28;;;;;;;;;;;;;;;;;;5056900;28;19924;-76
2022/04/24 06:57:54;;;;;;;;;;;;;;;;;;5055456;28;19925;-76
2022/04/24 07:00:20;;;;;;;;;;;;;;;;;;5052240;28;19940;-75
2022/04/24 07:02:47;;;;;;;;;;;;;;;;;;5057556;28;19925;-76
2022/04/24 07:05:13;;;;;;;;;;;;;;;;;;5064600;28;19925;-76
2022/04/24 07:07:39;;;;;;;;;;;;;;;;;;5057853;28;20420;-76
2022/04/24 07:10:05;;;;;;;;;;;;;;;;;;5064480;28;19932;-76
2022/04/24 07:12:31;;;;;;;;;;;;;;;;;;5047709;28;19929;-70
2022/04/24 07:14:57;;;;;;;;;;;;;;;;;;5051531;28;19925;-69
2022/04/24 07:17:24;;;;;;;;;;;;;;;;;;5047560;28;19932;-72
2022/04/24 07:19:50;;;;;;;;;;;;;;;;;;5045331;28;20300;-72
2022/04/24 07:22:16;;;;;;;;;;;;;;;;;;5042722;28;20270;-71
2022/04/24 07:24:42;;;;;;;;;;;;;;;;;;5056770;28;19970;-71
2022/04/24 07:27:08;;;;;;;;;;;;;;;;;;5056386;28;19925;-70
2022/04/24 07:29:34;;;;;;;;;;;;;;;;;;5047666;28;20654;-70
2022/04/24 07:32:00;;;;;;;;;;;;;;;;;;5054873;28;20424;-70
2022/04/24 07:34:27;;;;;;;;;;;;;;;;;;5052191;28;19925;-70
2022/04/24 07:36:53;;;;;;;;;;;;;;;;;;5053528;28;20389;-70
2022/04/24 07:39:19;;;;;;;;;;;;;;;;;;5065015;28;19933;-71
2022/04/24 07:41:45;;;;;;;;;;;;;;;;;;5050315;28;20138;-71
2022/04/24 07:44:11;;;;;;;;;;;;;;;;;;5058094;28;19925;-71
2022/04/24 07:46:37;;;;;;;;;;;;;;;;;;5046238;28;19925;-73
2022/04/24 07:49:04;;;;;;;;;;;;;;;;;;5055490;28;19931;-71
2022/04/24 07:51:30;;;;;;;;;;;;;;;;;;5063775;28;19929;-71
2022/04/24 07:53:56;;;;;;;;;;;;;;;;;;5055886;28;19925;-71
2022/04/24 07:56:22;;;;;;;;;;;;;;;;;;5065037;28;19935;-72
2022/04/24 07:58:48;;;;;;;;;;;;;;;;;;5058979;28;19925;-72
2022/04/24 08:01:16;;;;;;;;;;;;;;;;;;5051434;28;20416;-71
2022/04/24 08:03:42;;;;;;;;;;;;;;;;;;5050248;28;20368;-74
2022/04/24 08:06:08;;;;;;;;;;;;;;;;;;5049455;28;19988;-72
2022/04/24 08:08:35;;;;;;;;;;;;;;;;;;5051940;28;20251;-73
2022/04/24 08:11:01;;;;;;;;;;;;;;;;;;5043339;28;20380;-72
2022/04/24 08:13:27;;;;;;;;;;;;;;;;;;5053177;28;19982;-72
2022/04/24 08:15:53;;;;;;;;;;;;;;;;;;5048083;28;20332;-71
2022/04/24 08:18:20;;;;;;;;;;;;;;;;;;5042734;28;19929;-71
2022/04/24 08:20:46;;;;;;;;;;;;;;;;;;5049894;28;19936;-71
2022/04/24 08:23:12;;;;;;;;;;;;;;;;;;5065454;28;19925;-71
2022/04/24 08:25:38;;;;;;;;;;;;;;;;;;5050304;28;19935;-71
2022/04/24 08:28:06;;;;;;;;;;;;;;;;;;5056185;28;19929;-71
2022/04/24 08:30:32;;;;;;;;;;;;;;;;;;5053415;28;19935;-71
2022/04/24 08:32:58;;;;;;;;;;;;;;;;;;5049349;28;19929;-72
2022/04/24 08:35:25;;;;;;;;;;;;;;;;;;5065044;28;19928;-72
2022/04/24 08:37:51;;;;;;;;;;;;;;;;;;5055502;28;19931;-72
2022/04/24 08:40:17;;;;;;;;;;;;;;;;;;5060726;28;19928;-73
2022/04/24 08:42:43;;;;;;;;;;;;;;;;;;5067251;28;19928;-73
2022/04/24 08:45:10;;;;;;;;;;;;;;;;;;5061991;28;19939;-73
2022/04/24 08:47:36;;;;;;;;;;;;;;;;;;5068672;28;19940;-72
2022/04/24 08:50:02;;;;;;;;;;;;;;;;;;5067594;28;20308;-73
2022/04/24 08:52:28;;;;;;;;;;;;;;;;;;5065985;28;19934;-72
2022/04/24 08:54:54;;;;;;;;;;;;;;;;;;5067088;28;19924;-73
2022/04/24 08:57:21;;;;;;;;;;;;;;;;;;5076767;28;19979;-75
2022/04/24 08:59:48;;;;;;;;;;;;;;;;;;5076483;28;19951;-74
2022/04/24 09:02:14;;;;;;;;;;;;;;;;;;5126244;22;20015;-63
2022/04/24 09:04:40;;;;;;;;;;;;;;;;;;5092362;28;19928;-66
2022/04/24 09:07:06;;;;;;;;;;;;;;;;;;5106296;28;19938;-67
2022/04/24 09:09:32;;;;;;;;;;;;;;;;;;5105261;28;19923;-65
2022/04/24 09:11:59;;;;;;;;;;;;;;;;;;5104526;28;19938;-62
2022/04/24 09:14:25;;;;;;;;;;;;;;;;;;5104817;28;20323;-65
2022/04/24 09:16:51;;;;;;;;;;;;;;;;;;5104451;28;19931;-65
2022/04/24 09:19:17;;;;;;;;;;;;;;;;;;5105019;28;19928;-65
2022/04/24 09:21:43;;;;;;;;;;;;;;;;;;5105239;28;19928;-65
2022/04/24 09:24:10;;;;;;;;;;;;;;;;;;5098861;28;19924;-65
2022/04/24 09:26:36;;;;;;;;;;;;;;;;;;5106366;28;19958;-63
2022/04/24 09:29:02;;;;;;;;;;;;;;;;;;5105855;28;19930;-64
2022/04/24 09:31:28;;;;;;;;;;;;;;;;;;5106680;28;20001;-66
2022/04/24 09:33:54;;;;;;;;;;;;;;;;;;5110204;28;19928;-65
2022/04/24 09:36:20;;;;;;;;;;;;;;;;;;5109957;28;20820;-64
2022/04/24 09:38:46;;;;;;;;;;;;;;;;;;5110971;28;19973;-65
2022/04/24 09:41:13;;;;;;;;;;;;;;;;;;5110024;28;19924;-65
2022/04/24 09:43:40;;;;;;;;;;;;;;;;;;5108615;28;19935;-64
2022/04/24 09:46:06;;;;;;;;;;;;;;;;;;5108676;28;19975;-65
2022/04/24 09:48:32;;;;;;;;;;;;;;;;;;5110027;28;19924;-63
2022/04/24 09:50:58;;;;;;;;;;;;;;;;;;5109519;28;19935;-62
2022/04/24 09:53:24;;;;;;;;;;;;;;;;;;5109907;28;20023;-69
2022/04/24 09:55:51;;;;;;;;;;;;;;;;;;5110235;28;19924;-69
2022/04/24 09:58:17;;;;;;;;;;;;;;;;;;5109748;28;20377;-69
2022/04/24 10:00:44;;;;;;;;;;;;;;;;;;5109997;28;20296;-69
2022/04/24 10:03:10;;;;;;;;;;;;;;;;;;5109278;28;19928;-68
2022/04/24 10:05:38;;;;;;;;;;;;;;;;;;5110653;28;19931;-70
2022/04/24 10:08:04;;;;;;;;;;;;;;;;;;5110864;28;20172;-69
2022/04/24 10:10:30;;;;;;;;;;;;;;;;;;5101841;28;19934;-70
2022/04/24 10:12:56;;;;;;;;;;;;;;;;;;5108971;28;19928;-69
2022/04/24 10:15:22;;;;;;;;;;;;;;;;;;5109555;28;19931;-69
2022/04/24 10:17:48;;;;;;;;;;;;;;;;;;5110039;28;19928;-69
2022/04/24 10:20:15;;;;;;;;;;;;;;;;;;5107235;28;19935;-69
2022/04/24 10:22:44;;;;;;;;;;;;;;;;;;5109308;28;20376;-68
2022/04/24 10:25:10;;;;;;;;;;;;;;;;;;5110421;28;20036;-69
2022/04/24 10:27:36;;;;;;;;;;;;;;;;;;5110637;28;19944;-69
2022/04/24 10:30:02;;;;;;;;;;;;;;;;;;5111036;28;19924;-68
2022/04/24 10:32:30;;;;;;;;;;;;;;;;;;5108225;28;19935;-67
2022/04/24 10:34:56;;;;;;;;;;;;;;;;;;5109695;28;19924;-68
2022/04/24 10:37:22;;;;;;;;;;;;;;;;;;5110127;28;19923;-69
2022/04/24 10:39:49;;;;;;;;;;;;;;;;;;5107879;28;20180;-68
2022/04/24 10:42:15;;;;;;;;;;;;;;;;;;5100803;28;20284;-67
2022/04/24 10:44:41;;;;;;;;;;;;;;;;;;4749829;28;10000273;-70
2022/04/24 10:47:07;;;;;;;;;;;;;;;;;;5104749;28;19923;-70
2022/04/24 10:49:34;;;;;;;;;;;;;;;;;;5089384;28;19935;-70
2022/04/24 10:52:00;;;;;;;;;;;;;;;;;;5103480;28;20334;-69
2022/04/24 10:54:26;;;;;;;;;;;;;;;;;;5093674;28;19935;-69
2022/04/24 10:56:52;;;;;;;;;;;;;;;;;;5101167;28;19930;-69
2022/04/24 10:59:18;;;;;;;;;;;;;;;;;;5101385;28;19924;-68
2022/04/24 11:01:44;;;;;;;;;;;;;;;;;;5106390;28;20407;-70
2022/04/24 11:04:11;;;;;;;;;;;;;;;;;;5104178;28;20285;-69
2022/04/24 11:06:37;;;;;;;;;;;;;;;;;;5101111;28;19958;-69
2022/04/24 11:09:03;;;;;;;;;;;;;;;;;;5097906;28;20016;-69
2022/04/24 11:11:31;;;;;;;;;;;;;;;;;;5102029;28;20407;-70
2022/04/24 11:13:58;;;;;;;;;;;;;;;;;;5103954;28;20277;-71
2022/04/24 11:16:24;;;;;;;;;;;;;;;;;;5103996;28;19938;-68
2022/04/24 11:18:50;;;;;;;;;;;;;;;;;;5103375;28;19932;-70
2022/04/24 11:21:19;;;;;;;;;;;;;;;;;;5102172;28;19935;-70
2022/04/24 11:23:45;;;;;;;;;;;;;;;;;;5106264;28;20034;-69
2022/04/24 11:26:12;;;;;;;;;;;;;;;;;;5107301;28;19935;-68
2022/04/24 11:28:38;;;;;;;;;;;;;;;;;;5104866;28;19928;-68
2022/04/24 11:31:05;;;;;;;;;;;;;;;;;;5106042;28;19928;-69
2022/04/24 11:33:31;;;;;;;;;;;;;;;;;;5105151;28;19972;-69
2022/04/24 11:35:57;;;;;;;;;;;;;;;;;;5105874;28;19933;-68
2022/04/24 11:38:23;;;;;;;;;;;;;;;;;;5097751;28;19928;-69
2022/04/24 11:40:49;;;;;;;;;;;;;;;;;;5102403;28;19938;-68
2022/04/24 11:43:16;;;;;;;;;;;;;;;;;;5103412;28;20288;-69
2022/04/24 11:51:10;;;;;;;;;;;;;;;;;;5101880;28;20445;-69
2022/04/24 11:53:36;;;;;;;;;;;;;;;;;;5104807;28;19938;-69
2022/04/24 11:56:03;;;;;;;;;;;;;;;;;;5099039;28;19931;-70
2022/04/24 11:58:29;;;;;;;;;;;;;;;;;;5101458;28;19928;-69
2022/04/24 12:00:56;;;;;;;;;;;;;;;;;;5106346;28;20002;-70
2022/04/24 12:03:22;;;;;;;;;;;;;;;;;;5104907;28;19935;-69
2022/04/24 12:05:48;;;;;;;;;;;;;;;;;;5099153;28;20301;-69
2022/04/24 12:08:14;;;;;;;;;;;;;;;;;;5102600;28;19958;-69
2022/04/24 12:10:40;;;;;;;;;;;;;;;;;;5102442;28;19928;-69
2022/04/24 12:13:08;;;;;;;;;;;;;;;;;;5096579;28;19979;-70
2022/04/24 12:15:34;;;;;;;;;;;;;;;;;;5103614;28;19979;-69
2022/04/24 12:18:01;;;;;;;;;;;;;;;;;;5102186;28;19924;-70
2022/04/24 12:20:27;;;;;;;;;;;;;;;;;;5098707;28;19958;-69
2022/04/24 12:22:53;;;;;;;;;;;;;;;;;;5103060;28;19950;-70
2022/04/24 12:25:20;;;;;;;;;;;;;;;;;;5105287;28;19932;-69
2022/04/24 12:27:46;;;;;;;;;;;;;;;;;;5104321;28;19928;-69
2022/04/24 12:30:12;;;;;;;;;;;;;;;;;;5096513;28;19927;-69
2022/04/24 12:32:40;;;;;;;;;;;;;;;;;;5103734;28;19928;-67
2022/04/24 12:35:06;;;;;;;;;;;;;;;;;;5102156;28;20030;-66
2022/04/24 12:37:32;;;;;;;;;;;;;;;;;;5105546;28;19927;-69
2022/04/24 12:39:59;;;;;;;;;;;;;;;;;;5100737;28;19928;-68
2022/04/24 12:42:25;;;;;;;;;;;;;;;;;;5093293;28;20296;-68
2022/04/24 12:44:51;;;;;;;;;;;;;;;;;;5103194;28;20384;-69
2022/04/24 12:47:17;;;;;;;;;;;;;;;;;;5100683;28;19928;-68
2022/04/24 12:49:45;;;;;;;;;;;;;;;;;;5095919;28;19928;-69
2022/04/24 12:52:11;;;;;;;;;;;;;;;;;;5096720;28;19928;-69
2022/04/24 12:54:37;;;;;;;;;;;;;;;;;;5102642;28;19928;-69
2022/04/24 12:57:03;;;;;;;;;;;;;;;;;;5100001;28;19935;-69
2022/04/24 12:59:29;;;;;;;;;;;;;;;;;;5105062;28;20397;-69
2022/04/24 13:01:57;;;;;;;;;;;;;;;;;;5097302;28;19928;-68
2022/04/24 13:04:23;;;;;;;;;;;;;;;;;;5096376;28;20473;-69
2022/04/24 13:06:49;;;;;;;;;;;;;;;;;;5108015;28;20230;-69
2022/04/24 13:09:16;;;;;;;;;;;;;;;;;;5109292;28;20312;-69
2022/04/24 13:11:42;;;;;;;;;;;;;;;;;;5108778;28;20341;-69
2022/04/24 13:14:08;;;;;;;;;;;;;;;;;;5108954;28;19992;-69
2022/04/24 13:19:19;;;;;;;;;;;;;;;;;;5106117;28;19927;-69
2022/04/24 13:21:45;;;;;;;;;;;;;;;;;;5109889;28;19963;-71
2022/04/24 13:24:11;;;;;;;;;;;;;;;;;;5106667;28;20120;-69
2022/04/24 13:26:37;;;;;;;;;;;;;;;;;;5108772;28;19939;-68
2022/04/24 13:29:04;;;;;;;;;;;;;;;;;;5108310;28;20411;-70
2022/04/24 13:31:30;;;;;;;;;;;;;;;;;;5108485;28;19928;-70
2022/04/24 13:33:56;;;;;;;;;;;;;;;;;;5103191;28;19927;-70
2022/04/24 13:36:23;;;;;;;;;;;;;;;;;;5107675;28;19923;-69
2022/04/24 13:38:49;;;;;;;;;;;;;;;;;;5103408;28;20463;-69
2022/04/24 13:41:15;;;;;;;;;;;;;;;;;;5108026;28;19928;-69
2022/04/24 13:43:42;;;;;;;;;;;;;;;;;;5107925;28;19928;-68
2022/04/24 13:46:09;;;;;;;;;;;;;;;;;;5106805;28;19939;-70
2022/04/24 13:48:35;;;;;;;;;;;;;;;;;;5108714;28;19981;-70
2022/04/24 13:51:02;;;;;;;;;;;;;;;;;;5108741;28;19939;-67
2022/04/24 13:53:28;;;;;;;;;;;;;;;;;;5106397;28;19927;-68
2022/04/24 13:55:54;;;;;;;;;;;;;;;;;;5095003;28;19928;-68
2022/04/24 13:58:21;;;;;;;;;;;;;;;;;;5100938;28;19932;-68
2022/04/24 14:00:47;;;;;;;;;;;;;;;;;;5105292;28;20071;-69
2022/04/24 14:03:13;;;;;;;;;;;;;;;;;;5104839;28;19932;-71
2022/04/24 14:05:39;;;;;;;;;;;;;;;;;;5106242;28;19940;-68
2022/04/24 14:08:05;;;;;;;;;;;;;;;;;;5108020;28;19927;-68
2022/04/24 14:10:32;;;;;;;;;;;;;;;;;;5108332;28;19932;-68
2022/04/24 14:12:58;;;;;;;;;;;;;;;;;;5100185;28;20418;-67
2022/04/24 14:15:26;;;;;;;;;;;;;;;;;;5106155;28;20404;-68
2022/04/24 14:17:55;;;;;;;;;;;;;;;;;;5100698;28;19971;-68
2022/04/24 14:20:21;;;;;;;;;;;;;;;;;;5106294;28;20008;-68
2022/04/24 14:22:47;;;;;;;;;;;;;;;;;;5109767;28;20031;-69
2022/04/24 14:25:14;;;;;;;;;;;;;;;;;;5106334;28;19931;-68
2022/04/24 14:27:40;;;;;;;;;;;;;;;;;;5107425;28;20273;-68
2022/04/24 14:30:07;;;;;;;;;;;;;;;;;;5109840;27;19974;-69
2022/04/24 14:32:33;;;;;;;;;;;;;;;;;;5108766;28;19951;-68
2022/04/24 14:34:59;;;;;;;;;;;;;;;;;;5108463;28;19939;-69
2022/04/24 14:37:25;;;;;;;;;;;;;;;;;;5108902;28;20023;-68
2022/04/24 14:39:51;;;;;;;;;;;;;;;;;;5108707;28;19928;-68
2022/04/24 14:42:18;;;;;;;;;;;;;;;;;;5107684;28;19928;-68
2022/04/24 14:44:44;;;;;;;;;;;;;;;;;;5107045;28;20010;-68
2022/04/24 14:58:06;;;;;;;;;;;;;;;;;;5105551;28;19935;-68
2022/04/24 15:00:32;;;;;;;;;;;;;;;;;;5107423;28;19975;-68
2022/04/24 15:02:59;;;;;;;;;;;;;;;;;;5169036;22;20042;-72
2022/04/24 15:05:25;;;;;;;;;;;;;;;;;;5082133;28;20432;-72
2022/04/24 15:07:51;;;;;;;;;;;;;;;;;;5074183;28;20297;-72
2022/04/24 15:10:17;;;;;;;;;;;;;;;;;;5073227;28;20213;-72
2022/04/24 15:12:43;;;;;;;;;;;;;;;;;;5069725;28;20252;-73
2022/04/24 15:15:10;;;;;;;;;;;;;;;;;;5068339;28;19928;-73
2022/04/24 15:17:37;;;;;;;;;;;;;;;;;;5068315;28;19928;-72
2022/04/24 15:20:03;;;;;;;;;;;;;;;;;;5068417;28;20312;-72
2022/04/24 15:22:29;;;;;;;;;;;;;;;;;;5071620;28;19932;-71
2022/04/24 15:24:55;;;;;;;;;;;;;;;;;;5068259;28;20296;-71
2022/04/24 15:27:22;;;;;;;;;;;;;;;;;;5068208;28;20022;-71
2022/04/24 15:29:48;;;;;;;;;;;;;;;;;;5068427;28;19928;-71
2022/04/24 15:32:14;;;;;;;;;;;;;;;;;;5068501;28;19928;-71
2022/04/24 15:34:41;;;;;;;;;;;;;;;;;;5067808;28;19929;-72
2022/04/24 15:37:07;;;;;;;;;;;;;;;;;;5069810;28;20286;-71
2022/04/24 15:39:34;;;;;;;;;;;;;;;;;;5068554;28;20071;-72
2022/04/24 15:42:01;;;;;;;;;;;;;;;;;;5066770;28;20178;-72
2022/04/24 15:45:10;;;;;;;;;;;;;;;;;;5074096;28;19939;-71
2022/04/24 15:47:14;;;;;;;;;;;;;;;;;;5088552;28;20432;-72
2022/04/24 15:49:40;;;;;;;;;;;;;;;;;;5086156;28;19963;-72
2022/04/24 15:52:06;;;;;;;;;;;;;;;;;;5076846;28;20003;-72
2022/04/24 15:54:32;;;;;;;;;;;;;;;;;;5067621;28;20007;-72
2022/04/24 15:56:58;;;;;;;;;;;;;;;;;;5063676;28;20283;-72
2022/04/24 15:59:25;;;;;;;;;;;;;;;;;;5067397;28;19928;-72
2022/04/24 16:01:51;;;;;;;;;;;;;;;;;;5068226;28;19932;-72
2022/04/24 16:04:17;;;;;;;;;;;;;;;;;;5066164;28;20381;-72
2022/04/24 16:06:43;;;;;;;;;;;;;;;;;;5066562;28;19935;-71
2022/04/24 16:09:09;;;;;;;;;;;;;;;;;;5062228;28;19928;-72
2022/04/24 16:11:35;;;;;;;;;;;;;;;;;;5067728;28;19934;-72
2022/04/24 16:14:02;;;;;;;;;;;;;;;;;;5067959;28;19933;-72
2022/04/24 16:16:29;;;;;;;;;;;;;;;;;;5067433;28;20023;-72
2022/04/24 16:18:56;;;;;;;;;;;;;;;;;;5068630;28;19963;-72
2022/04/24 16:21:22;;;;;;;;;;;;;;;;;;5066272;28;19928;-71
2022/04/24 16:23:48;;;;;;;;;;;;;;;;;;5065202;28;20027;-72
2022/04/24 16:26:15;;;;;;;;;;;;;;;;;;5065409;28;20022;-72
2022/04/24 16:28:42;;;;;;;;;;;;;;;;;;5065158;28;19933;-71
2022/04/24 16:31:08;;;;;;;;;;;;;;;;;;5066171;28;20248;-72
2022/04/24 16:33:35;;;;;;;;;;;;;;;;;;5067696;28;19935;-72
2022/04/24 16:36:02;;;;;;;;;;;;;;;;;;5066664;28;20277;-72
2022/04/24 16:38:28;;;;;;;;;;;;;;;;;;5064524;28;19936;-72
2022/04/24 16:40:54;;;;;;;;;;;;;;;;;;5077075;28;19928;-72
2022/04/24 16:43:20;;;;;;;;;;;;;;;;;;5071463;28;19935;-72
2022/04/24 16:45:46;;;;;;;;;;;;;;;;;;5077756;28;19928;-71
2022/04/24 16:48:13;;;;;;;;;;;;;;;;;;5077960;28;19929;-72
2022/04/24 16:58:56;;;;;;;;;;;;;;;;;;5071007;28;20391;-72
2022/04/24 17:01:22;;;;;;;;;;;;;;;;;;5066194;28;19928;-72
2022/04/24 17:03:48;;;;;;;;;;;;;;;;;;5070454;28;19924;-72
2022/04/24 17:06:14;;;;;;;;;;;;;;;;;;5064333;28;20096;-71